Terminal Aerodrome Forecast
Issued by NWS North Platte, NE

Home | Current Version | Previous Version | Graphics & Text | Print | Product List | Glossary On
Versions: 1 2 3 4 5 6 7 8 9 10 11 12 13 14 15 16
010
FTUS43 KLBF 222227 AAA
TAFVTN
TAF AMD
KVTN 222227Z 2222/2318 14017G24KT P6SM VCTS SCT040CB SCT090
      TEMPO 2222/2224 -TSRA BKN040CB
     FM230000 16015G21KT P6SM VCTS BKN050CB
      TEMPO 2300/2304 VRB25G40KT 4SM TSRAGS SQ BKN040CB
     FM230400 17015G22KT P6SM -TSRA BKN050CB
      TEMPO 2304/2307 34025G40KT 3SM +TSRA SQ OVC025CB
     FM231000 25008KT P6SM BKN120
     FM231400 29006KT P6SM SCT250=

USA.gov is the U.S. government's official web portal to all federal, state and local government web resources and services.